Goodsprings, Nevada
Current Conditions -  °F | °C
As of 9:56 AM on Friday 31 Oct 2014 (Local Time) from KHND Reporting Station
Clear Clear  
Wind Chill: 74°   Ceiling: Unl
Heat Index: 74°   Visibility: 10mi
Dew Point: 30°   Wind: 0mph
Humidity: 20%   Direction: NA
Pressure: 29.96"   Gusts: NA
Location:  35.8439°N, 115.475°W
Report Text: KHND 311656Z 00000KT 10SM CLR 23/M01 A2996 RMK AO2 T02331011 SLP128
Loading
Personal Weather Stations






























Interactive Weather Map
Tropical Storm Tracking
New forecast layout! Learn more

10-Day Weather Forecast

Advertisements
Track Severe Weather on mobile